sensor_id;sensor_type;location;lat;lon;timestamp;P1;durP1;ratioP1;P2;durP2;ratioP2
27985;SDS011;15453;53.692;10.168;2023-07-20T00:01:27;2.17;;;1.48;;
27985;SDS011;15453;53.692;10.168;2023-07-20T00:03:52;1.13;;;0.80;;
27985;SDS011;15453;53.692;10.168;2023-07-20T00:06:21;1.20;;;1.00;;
27985;SDS011;15453;53.692;10.168;2023-07-20T00:08:47;1.30;;;0.93;;
27985;SDS011;15453;53.692;10.168;2023-07-20T00:11:12;1.27;;;1.00;;
27985;SDS011;15453;53.692;10.168;2023-07-20T00:13:38;1.40;;;1.20;;
27985;SDS011;15453;53.692;10.168;2023-07-20T00:16:04;1.85;;;1.25;;
27985;SDS011;15453;53.692;10.168;2023-07-20T00:18:30;1.15;;;0.93;;
27985;SDS011;15453;53.692;10.168;2023-07-20T00:20:55;2.40;;;1.08;;
27985;SDS011;15453;53.692;10.168;2023-07-20T00:23:20;1.65;;;1.10;;
27985;SDS011;15453;53.692;10.168;2023-07-20T00:25:47;1.17;;;0.93;;
27985;SDS011;15453;53.692;10.168;2023-07-20T00:28:12;1.42;;;1.10;;
27985;SDS011;15453;53.692;10.168;2023-07-20T00:30:38;2.50;;;1.20;;
27985;SDS011;15453;53.692;10.168;2023-07-20T00:33:03;1.67;;;1.10;;
27985;SDS011;15453;53.692;10.168;2023-07-20T00:35:28;2.10;;;0.95;;
27985;SDS011;15453;53.692;10.168;2023-07-20T00:37:53;2.65;;;1.02;;
27985;SDS011;15453;53.692;10.168;2023-07-20T00:40:19;4.68;;;1.10;;
27985;SDS011;15453;53.692;10.168;2023-07-20T00:42:44;1.40;;;1.10;;
27985;SDS011;15453;53.692;10.168;2023-07-20T00:45:09;1.95;;;1.45;;
27985;SDS011;15453;53.692;10.168;2023-07-20T00:47:35;1.40;;;1.30;;
27985;SDS011;15453;53.692;10.168;2023-07-20T00:50:01;2.63;;;1.15;;
27985;SDS011;15453;53.692;10.168;2023-07-20T00:52:27;3.08;;;1.40;;
27985;SDS011;15453;53.692;10.168;2023-07-20T00:54:53;7.85;;;1.52;;
27985;SDS011;15453;53.692;10.168;2023-07-20T00:57:21;2.05;;;1.08;;
27985;SDS011;15453;53.692;10.168;2023-07-20T00:59:48;4.68;;;1.50;;
27985;SDS011;15453;53.692;10.168;2023-07-20T01:02:14;1.85;;;1.20;;
27985;SDS011;15453;53.692;10.168;2023-07-20T01:04:39;3.53;;;1.30;;
27985;SDS011;15453;53.692;10.168;2023-07-20T01:10:05;3.20;;;1.45;;
27985;SDS011;15453;53.692;10.168;2023-07-20T01:12:40;2.78;;;1.50;;
27985;SDS011;15453;53.692;10.168;2023-07-20T01:15:07;2.88;;;1.40;;
27985;SDS011;15453;53.692;10.168;2023-07-20T01:17:33;2.95;;;1.50;;
27985;SDS011;15453;53.692;10.168;2023-07-20T01:19:59;3.13;;;1.50;;
27985;SDS011;15453;53.692;10.168;2023-07-20T01:28:13;4.10;;;1.65;;
27985;SDS011;15453;53.692;10.168;2023-07-20T01:30:56;3.78;;;1.70;;
27985;SDS011;15453;53.692;10.168;2023-07-20T01:33:35;3.45;;;1.70;;
27985;SDS011;15453;53.692;10.168;2023-07-20T01:36:01;4.88;;;2.20;;
27985;SDS011;15453;53.692;10.168;2023-07-20T01:38:27;2.97;;;2.00;;
27985;SDS011;15453;53.692;10.168;2023-07-20T01:40:53;7.10;;;2.08;;
27985;SDS011;15453;53.692;10.168;2023-07-20T01:43:18;3.17;;;2.22;;
27985;SDS011;15453;53.692;10.168;2023-07-20T01:45:44;4.53;;;2.38;;
27985;SDS011;15453;53.692;10.168;2023-07-20T01:48:09;3.40;;;2.33;;
27985;SDS011;15453;53.692;10.168;2023-07-20T01:50:35;6.93;;;2.38;;
27985;SDS011;15453;53.692;10.168;2023-07-20T01:53:01;2.90;;;2.15;;
27985;SDS011;15453;53.692;10.168;2023-07-20T01:55:26;2.60;;;2.40;;
27985;SDS011;15453;53.692;10.168;2023-07-20T01:57:52;3.45;;;2.30;;
27985;SDS011;15453;53.692;10.168;2023-07-20T02:00:17;4.75;;;3.00;;
27985;SDS011;15453;53.692;10.168;2023-07-20T02:02:46;3.10;;;2.38;;
27985;SDS011;15453;53.692;10.168;2023-07-20T02:05:11;2.42;;;2.13;;
27985;SDS011;15453;53.692;10.168;2023-07-20T02:07:36;4.28;;;2.53;;
27985;SDS011;15453;53.692;10.168;2023-07-20T02:10:02;5.20;;;2.78;;
27985;SDS011;15453;53.692;10.168;2023-07-20T02:12:27;4.10;;;2.90;;
27985;SDS011;15453;53.692;10.168;2023-07-20T02:14:52;6.07;;;3.05;;
27985;SDS011;15453;53.692;10.168;2023-07-20T02:17:18;5.03;;;2.70;;
27985;SDS011;15453;53.692;10.168;2023-07-20T02:19:43;4.97;;;2.53;;
27985;SDS011;15453;53.692;10.168;2023-07-20T02:22:08;3.60;;;2.67;;
27985;SDS011;15453;53.692;10.168;2023-07-20T02:24:34;4.88;;;2.85;;
27985;SDS011;15453;53.692;10.168;2023-07-20T02:26:59;7.22;;;3.20;;
27985;SDS011;15453;53.692;10.168;2023-07-20T02:29:24;4.65;;;3.05;;
27985;SDS011;15453;53.692;10.168;2023-07-20T02:31:49;4.30;;;3.03;;
27985;SDS011;15453;53.692;10.168;2023-07-20T02:34:15;4.88;;;3.05;;
27985;SDS011;15453;53.692;10.168;2023-07-20T02:36:40;3.33;;;3.03;;
27985;SDS011;15453;53.692;10.168;2023-07-20T02:39:07;5.43;;;3.25;;
27985;SDS011;15453;53.692;10.168;2023-07-20T02:41:33;3.70;;;2.97;;
27985;SDS011;15453;53.692;10.168;2023-07-20T02:43:58;3.70;;;2.95;;
27985;SDS011;15453;53.692;10.168;2023-07-20T02:46:24;5.07;;;3.42;;
27985;SDS011;15453;53.692;10.168;2023-07-20T02:48:49;3.85;;;2.95;;
27985;SDS011;15453;53.692;10.168;2023-07-20T02:51:14;6.07;;;3.53;;
27985;SDS011;15453;53.692;10.168;2023-07-20T02:53:39;3.97;;;3.13;;
27985;SDS011;15453;53.692;10.168;2023-07-20T02:56:05;5.30;;;3.95;;
27985;SDS011;15453;53.692;10.168;2023-07-20T02:58:30;5.75;;;3.70;;
27985;SDS011;15453;53.692;10.168;2023-07-20T03:00:55;6.10;;;3.47;;
27985;SDS011;15453;53.692;10.168;2023-07-20T03:03:20;5.63;;;4.57;;
27985;SDS011;15453;53.692;10.168;2023-07-20T03:05:46;5.93;;;3.90;;
27985;SDS011;15453;53.692;10.168;2023-07-20T03:08:11;5.82;;;3.60;;
27985;SDS011;15453;53.692;10.168;2023-07-20T03:10:40;7.22;;;4.20;;
27985;SDS011;15453;53.692;10.168;2023-07-20T03:13:06;5.50;;;4.05;;
27985;SDS011;15453;53.692;10.168;2023-07-20T03:15:31;5.93;;;4.00;;
27985;SDS011;15453;53.692;10.168;2023-07-20T03:17:56;4.43;;;3.88;;
27985;SDS011;15453;53.692;10.168;2023-07-20T03:20:23;6.80;;;4.05;;
27985;SDS011;15453;53.692;10.168;2023-07-20T03:22:48;7.60;;;4.93;;
27985;SDS011;15453;53.692;10.168;2023-07-20T03:25:14;6.15;;;4.35;;
27985;SDS011;15453;53.692;10.168;2023-07-20T03:27:39;6.68;;;4.30;;
27985;SDS011;15453;53.692;10.168;2023-07-20T03:30:04;5.75;;;4.15;;
27985;SDS011;15453;53.692;10.168;2023-07-20T03:32:32;5.40;;;4.25;;
27985;SDS011;15453;53.692;10.168;2023-07-20T03:34:57;4.72;;;3.95;;
27985;SDS011;15453;53.692;10.168;2023-07-20T03:37:22;5.63;;;4.18;;
27985;SDS011;15453;53.692;10.168;2023-07-20T03:39:48;6.43;;;4.68;;
27985;SDS011;15453;53.692;10.168;2023-07-20T03:42:13;6.40;;;4.63;;
27985;SDS011;15453;53.692;10.168;2023-07-20T03:44:39;5.72;;;4.55;;
27985;SDS011;15453;53.692;10.168;2023-07-20T03:47:04;7.22;;;5.00;;
27985;SDS011;15453;53.692;10.168;2023-07-20T03:49:30;6.03;;;4.40;;
27985;SDS011;15453;53.692;10.168;2023-07-20T03:51:55;5.22;;;4.72;;
27985;SDS011;15453;53.692;10.168;2023-07-20T03:54:20;5.13;;;4.63;;
27985;SDS011;15453;53.692;10.168;2023-07-20T03:56:45;5.38;;;4.53;;
27985;SDS011;15453;53.692;10.168;2023-07-20T03:59:11;6.43;;;5.13;;
27985;SDS011;15453;53.692;10.168;2023-07-20T04:01:36;5.97;;;4.78;;
27985;SDS011;15453;53.692;10.168;2023-07-20T04:04:05;5.85;;;4.57;;
27985;SDS011;15453;53.692;10.168;2023-07-20T04:06:32;5.43;;;4.93;;
27985;SDS011;15453;53.692;10.168;2023-07-20T04:08:58;7.90;;;5.05;;
27985;SDS011;15453;53.692;10.168;2023-07-20T04:11:23;4.63;;;4.13;;
27985;SDS011;15453;53.692;10.168;2023-07-20T04:13:48;8.05;;;4.90;;
27985;SDS011;15453;53.692;10.168;2023-07-20T04:16:14;5.85;;;5.25;;
27985;SDS011;15453;53.692;10.168;2023-07-20T04:18:39;4.55;;;4.13;;
27985;SDS011;15453;53.692;10.168;2023-07-20T04:21:04;7.15;;;5.30;;
27985;SDS011;15453;53.692;10.168;2023-07-20T04:23:29;5.28;;;4.57;;
27985;SDS011;15453;53.692;10.168;2023-07-20T04:25:55;4.88;;;4.18;;
27985;SDS011;15453;53.692;10.168;2023-07-20T04:28:20;4.45;;;3.92;;
27985;SDS011;15453;53.692;10.168;2023-07-20T04:30:48;5.63;;;4.20;;
27985;SDS011;15453;53.692;10.168;2023-07-20T04:33:14;5.43;;;3.88;;
27985;SDS011;15453;53.692;10.168;2023-07-20T04:38:14;4.28;;;3.63;;
27985;SDS011;15453;53.692;10.168;2023-07-20T04:40:46;5.18;;;3.97;;
27985;SDS011;15453;53.692;10.168;2023-07-20T04:43:12;4.65;;;4.03;;
27985;SDS011;15453;53.692;10.168;2023-07-20T04:45:41;4.93;;;4.30;;
27985;SDS011;15453;53.692;10.168;2023-07-20T04:48:08;4.70;;;4.10;;
27985;SDS011;15453;53.692;10.168;2023-07-20T04:50:36;5.13;;;3.63;;
27985;SDS011;15453;53.692;10.168;2023-07-20T04:53:01;6.43;;;4.40;;
27985;SDS011;15453;53.692;10.168;2023-07-20T04:55:27;4.82;;;4.05;;
27985;SDS011;15453;53.692;10.168;2023-07-20T04:57:53;6.00;;;4.32;;
27985;SDS011;15453;53.692;10.168;2023-07-20T05:00:18;5.40;;;4.30;;
27985;SDS011;15453;53.692;10.168;2023-07-20T05:02:44;4.55;;;3.75;;
27985;SDS011;15453;53.692;10.168;2023-07-20T05:05:09;3.78;;;3.47;;
27985;SDS011;15453;53.692;10.168;2023-07-20T05:07:34;4.05;;;3.42;;
27985;SDS011;15453;53.692;10.168;2023-07-20T05:09:59;4.85;;;3.28;;
27985;SDS011;15453;53.692;10.168;2023-07-20T05:12:25;5.75;;;3.75;;
27985;SDS011;15453;53.692;10.168;2023-07-20T05:14:51;4.18;;;3.35;;
27985;SDS011;15453;53.692;10.168;2023-07-20T05:17:16;4.03;;;3.13;;
27985;SDS011;15453;53.692;10.168;2023-07-20T05:19:41;3.55;;;3.00;;
27985;SDS011;15453;53.692;10.168;2023-07-20T05:22:06;3.33;;;2.95;;
27985;SDS011;15453;53.692;10.168;2023-07-20T05:24:32;4.75;;;3.17;;
27985;SDS011;15453;53.692;10.168;2023-07-20T05:26:57;4.80;;;3.70;;
27985;SDS011;15453;53.692;10.168;2023-07-20T05:29:23;5.28;;;3.08;;
27985;SDS011;15453;53.692;10.168;2023-07-20T05:31:49;4.35;;;2.88;;
27985;SDS011;15453;53.692;10.168;2023-07-20T05:34:14;3.42;;;2.70;;
27985;SDS011;15453;53.692;10.168;2023-07-20T05:36:39;3.75;;;2.83;;
27985;SDS011;15453;53.692;10.168;2023-07-20T05:39:04;3.92;;;2.90;;
27985;SDS011;15453;53.692;10.168;2023-07-20T05:41:31;2.53;;;2.20;;
27985;SDS011;15453;53.692;10.168;2023-07-20T05:43:56;2.20;;;1.90;;
27985;SDS011;15453;53.692;10.168;2023-07-20T05:46:22;2.83;;;2.28;;
27985;SDS011;15453;53.692;10.168;2023-07-20T05:48:47;3.38;;;2.03;;
27985;SDS011;15453;53.692;10.168;2023-07-20T05:51:12;1.92;;;1.60;;
27985;SDS011;15453;53.692;10.168;2023-07-20T05:53:37;2.25;;;1.48;;
27985;SDS011;15453;53.692;10.168;2023-07-20T05:56:03;3.97;;;1.60;;
27985;SDS011;15453;53.692;10.168;2023-07-20T05:58:29;2.60;;;1.63;;
27985;SDS011;15453;53.692;10.168;2023-07-20T06:00:54;2.72;;;1.55;;
27985;SDS011;15453;53.692;10.168;2023-07-20T06:03:19;1.58;;;1.08;;
27985;SDS011;15453;53.692;10.168;2023-07-20T06:05:46;2.13;;;1.27;;
27985;SDS011;15453;53.692;10.168;2023-07-20T06:08:11;1.70;;;1.20;;
27985;SDS011;15453;53.692;10.168;2023-07-20T06:10:37;1.50;;;1.00;;
27985;SDS011;15453;53.692;10.168;2023-07-20T06:13:02;2.00;;;1.10;;
27985;SDS011;15453;53.692;10.168;2023-07-20T06:15:33;3.10;;;1.10;;
27985;SDS011;15453;53.692;10.168;2023-07-20T06:18:03;1.65;;;0.98;;
27985;SDS011;15453;53.692;10.168;2023-07-20T06:20:28;3.40;;;1.40;;
27985;SDS011;15453;53.692;10.168;2023-07-20T06:22:54;4.90;;;1.00;;
27985;SDS011;15453;53.692;10.168;2023-07-20T06:25:19;1.52;;;0.90;;
27985;SDS011;15453;53.692;10.168;2023-07-20T06:27:46;3.75;;;1.02;;
27985;SDS011;15453;53.692;10.168;2023-07-20T06:30:11;2.03;;;0.73;;
27985;SDS011;15453;53.692;10.168;2023-07-20T06:32:37;3.30;;;1.00;;
27985;SDS011;15453;53.692;10.168;2023-07-20T06:35:03;2.35;;;0.80;;
27985;SDS011;15453;53.692;10.168;2023-07-20T06:37:28;1.90;;;0.85;;
27985;SDS011;15453;53.692;10.168;2023-07-20T06:39:54;1.65;;;0.93;;
27985;SDS011;15453;53.692;10.168;2023-07-20T06:42:19;5.22;;;0.88;;
27985;SDS011;15453;53.692;10.168;2023-07-20T06:44:44;1.25;;;0.75;;
27985;SDS011;15453;53.692;10.168;2023-07-20T06:47:10;3.55;;;0.80;;
27985;SDS011;15453;53.692;10.168;2023-07-20T06:49:35;2.35;;;0.70;;
27985;SDS011;15453;53.692;10.168;2023-07-20T06:52:01;2.13;;;0.95;;
27985;SDS011;15453;53.692;10.168;2023-07-20T06:54:26;3.72;;;1.10;;
27985;SDS011;15453;53.692;10.168;2023-07-20T06:56:51;1.77;;;1.00;;
27985;SDS011;15453;53.692;10.168;2023-07-20T06:59:16;1.83;;;1.10;;
27985;SDS011;15453;53.692;10.168;2023-07-20T07:01:42;2.35;;;0.90;;
27985;SDS011;15453;53.692;10.168;2023-07-20T07:04:07;3.50;;;0.90;;
27985;SDS011;15453;53.692;10.168;2023-07-20T07:06:33;3.10;;;0.95;;
27985;SDS011;15453;53.692;10.168;2023-07-20T07:08:58;4.20;;;0.90;;
27985;SDS011;15453;53.692;10.168;2023-07-20T07:11:23;2.30;;;1.25;;
27985;SDS011;15453;53.692;10.168;2023-07-20T07:13:48;6.05;;;1.00;;
27985;SDS011;15453;53.692;10.168;2023-07-20T07:16:16;2.13;;;0.90;;
27985;SDS011;15453;53.692;10.168;2023-07-20T07:18:43;2.47;;;0.90;;
27985;SDS011;15453;53.692;10.168;2023-07-20T07:21:09;2.25;;;0.80;;
27985;SDS011;15453;53.692;10.168;2023-07-20T07:23:35;4.00;;;1.08;;
27985;SDS011;15453;53.692;10.168;2023-07-20T07:26:00;4.75;;;1.10;;
27985;SDS011;15453;53.692;10.168;2023-07-20T07:28:25;2.72;;;1.10;;
27985;SDS011;15453;53.692;10.168;2023-07-20T07:30:50;2.50;;;1.30;;
27985;SDS011;15453;53.692;10.168;2023-07-20T07:33:16;5.75;;;1.13;;
27985;SDS011;15453;53.692;10.168;2023-07-20T07:35:41;2.85;;;1.20;;
27985;SDS011;15453;53.692;10.168;2023-07-20T07:38:06;1.92;;;1.15;;
27985;SDS011;15453;53.692;10.168;2023-07-20T07:40:32;2.67;;;1.10;;
27985;SDS011;15453;53.692;10.168;2023-07-20T07:42:57;2.05;;;1.05;;
27985;SDS011;15453;53.692;10.168;2023-07-20T07:45:22;3.15;;;1.35;;
27985;SDS011;15453;53.692;10.168;2023-07-20T07:47:48;4.00;;;1.20;;
27985;SDS011;15453;53.692;10.168;2023-07-20T07:50:13;4.18;;;1.50;;
27985;SDS011;15453;53.692;10.168;2023-07-20T07:52:38;2.55;;;1.30;;
27985;SDS011;15453;53.692;10.168;2023-07-20T07:55:04;3.08;;;1.02;;
27985;SDS011;15453;53.692;10.168;2023-07-20T07:57:29;3.13;;;1.30;;
27985;SDS011;15453;53.692;10.168;2023-07-20T07:59:55;2.17;;;1.08;;
27985;SDS011;15453;53.692;10.168;2023-07-20T08:02:20;3.92;;;1.35;;
27985;SDS011;15453;53.692;10.168;2023-07-20T08:04:46;3.40;;;1.20;;
27985;SDS011;15453;53.692;10.168;2023-07-20T08:07:11;3.10;;;1.10;;
27985;SDS011;15453;53.692;10.168;2023-07-20T08:09:37;2.30;;;1.20;;
27985;SDS011;15453;53.692;10.168;2023-07-20T08:12:03;4.32;;;1.20;;
27985;SDS011;15453;53.692;10.168;2023-07-20T08:14:28;7.15;;;1.35;;
27985;SDS011;15453;53.692;10.168;2023-07-20T08:16:53;3.38;;;1.45;;
27985;SDS011;15453;53.692;10.168;2023-07-20T08:19:19;7.03;;;1.60;;
27985;SDS011;15453;53.692;10.168;2023-07-20T08:21:44;3.65;;;1.48;;
27985;SDS011;15453;53.692;10.168;2023-07-20T08:24:10;2.78;;;1.45;;
27985;SDS011;15453;53.692;10.168;2023-07-20T08:26:35;5.28;;;1.90;;
27985;SDS011;15453;53.692;10.168;2023-07-20T08:29:00;2.67;;;1.50;;
27985;SDS011;15453;53.692;10.168;2023-07-20T08:31:25;5.38;;;2.10;;
27985;SDS011;15453;53.692;10.168;2023-07-20T08:33:53;2.60;;;1.83;;
27985;SDS011;15453;53.692;10.168;2023-07-20T08:36:18;5.93;;;2.05;;
27985;SDS011;15453;53.692;10.168;2023-07-20T08:38:43;4.93;;;1.95;;
27985;SDS011;15453;53.692;10.168;2023-07-20T08:41:08;7.65;;;2.17;;
27985;SDS011;15453;53.692;10.168;2023-07-20T08:43:34;6.38;;;1.90;;
27985;SDS011;15453;53.692;10.168;2023-07-20T08:46:02;6.22;;;2.03;;
27985;SDS011;15453;53.692;10.168;2023-07-20T08:48:28;5.03;;;1.80;;
27985;SDS011;15453;53.692;10.168;2023-07-20T08:50:55;5.53;;;1.60;;
27985;SDS011;15453;53.692;10.168;2023-07-20T08:53:22;4.60;;;1.70;;
27985;SDS011;15453;53.692;10.168;2023-07-20T08:55:49;5.38;;;1.73;;
27985;SDS011;15453;53.692;10.168;2023-07-20T08:58:16;5.20;;;1.77;;
27985;SDS011;15453;53.692;10.168;2023-07-20T09:00:42;4.40;;;1.38;;
27985;SDS011;15453;53.692;10.168;2023-07-20T09:03:08;6.45;;;1.60;;
27985;SDS011;15453;53.692;10.168;2023-07-20T09:05:34;5.53;;;1.58;;
27985;SDS011;15453;53.692;10.168;2023-07-20T09:08:00;6.70;;;1.98;;
27985;SDS011;15453;53.692;10.168;2023-07-20T09:10:26;3.00;;;1.30;;
27985;SDS011;15453;53.692;10.168;2023-07-20T09:12:51;6.13;;;1.75;;
27985;SDS011;15453;53.692;10.168;2023-07-20T09:15:16;4.30;;;1.45;;
27985;SDS011;15453;53.692;10.168;2023-07-20T09:17:45;3.05;;;1.20;;
27985;SDS011;15453;53.692;10.168;2023-07-20T09:20:12;3.45;;;1.23;;
27985;SDS011;15453;53.692;10.168;2023-07-20T09:22:39;2.22;;;1.00;;
27985;SDS011;15453;53.692;10.168;2023-07-20T09:25:11;5.35;;;1.10;;
27985;SDS011;15453;53.692;10.168;2023-07-20T09:27:46;2.42;;;0.75;;
27985;SDS011;15453;53.692;10.168;2023-07-20T09:30:13;5.43;;;1.38;;
27985;SDS011;15453;53.692;10.168;2023-07-20T09:32:40;6.57;;;1.25;;
27985;SDS011;15453;53.692;10.168;2023-07-20T09:35:12;2.63;;;1.30;;
27985;SDS011;15453;53.692;10.168;2023-07-20T09:37:38;3.42;;;1.00;;
27985;SDS011;15453;53.692;10.168;2023-07-20T09:40:04;3.63;;;0.93;;
27985;SDS011;15453;53.692;10.168;2023-07-20T09:42:31;3.45;;;1.33;;
27985;SDS011;15453;53.692;10.168;2023-07-20T09:44:57;5.95;;;1.08;;
27985;SDS011;15453;53.692;10.168;2023-07-20T09:47:22;2.13;;;0.90;;
27985;SDS011;15453;53.692;10.168;2023-07-20T09:49:48;2.38;;;1.00;;
27985;SDS011;15453;53.692;10.168;2023-07-20T09:52:14;4.40;;;1.02;;
27985;SDS011;15453;53.692;10.168;2023-07-20T09:54:40;2.83;;;1.00;;
27985;SDS011;15453;53.692;10.168;2023-07-20T09:57:07;3.30;;;1.08;;
27985;SDS011;15453;53.692;10.168;2023-07-20T09:59:33;2.20;;;0.80;;
27985;SDS011;15453;53.692;10.168;2023-07-20T10:01:59;4.45;;;1.02;;
27985;SDS011;15453;53.692;10.168;2023-07-20T10:04:28;1.98;;;0.80;;
27985;SDS011;15453;53.692;10.168;2023-07-20T10:06:54;3.92;;;0.80;;
27985;SDS011;15453;53.692;10.168;2023-07-20T10:09:21;3.20;;;0.90;;
27985;SDS011;15453;53.692;10.168;2023-07-20T10:11:50;1.98;;;0.52;;
27985;SDS011;15453;53.692;10.168;2023-07-20T10:14:16;2.47;;;0.73;;
27985;SDS011;15453;53.692;10.168;2023-07-20T10:16:51;2.83;;;0.70;;
27985;SDS011;15453;53.692;10.168;2023-07-20T10:19:33;2.88;;;0.93;;
27985;SDS011;15453;53.692;10.168;2023-07-20T10:22:07;5.28;;;1.30;;
27985;SDS011;15453;53.692;10.168;2023-07-20T10:24:37;1.35;;;0.55;;
27985;SDS011;15453;53.692;10.168;2023-07-20T10:27:03;4.82;;;0.90;;
27985;SDS011;15453;53.692;10.168;2023-07-20T10:29:30;3.85;;;1.17;;
27985;SDS011;15453;53.692;10.168;2023-07-20T10:31:55;1.05;;;0.30;;
27985;SDS011;15453;53.692;10.168;2023-07-20T10:34:22;1.98;;;0.50;;
27985;SDS011;15453;53.692;10.168;2023-07-20T10:36:48;2.47;;;0.95;;
27985;SDS011;15453;53.692;10.168;2023-07-20T10:39:30;4.70;;;0.83;;
27985;SDS011;15453;53.692;10.168;2023-07-20T10:42:00;2.65;;;0.70;;
27985;SDS011;15453;53.692;10.168;2023-07-20T10:44:27;1.52;;;0.50;;
27985;SDS011;15453;53.692;10.168;2023-07-20T10:46:52;3.05;;;0.70;;
27985;SDS011;15453;53.692;10.168;2023-07-20T10:49:24;2.03;;;0.63;;
27985;SDS011;15453;53.692;10.168;2023-07-20T10:51:56;1.60;;;0.70;;
27985;SDS011;15453;53.692;10.168;2023-07-20T10:56:51;1.97;;;0.70;;
27985;SDS011;15453;53.692;10.168;2023-07-20T10:59:19;2.88;;;0.80;;
27985;SDS011;15453;53.692;10.168;2023-07-20T11:02:08;2.47;;;0.75;;
27985;SDS011;15453;53.692;10.168;2023-07-20T11:04:40;3.70;;;0.73;;
27985;SDS011;15453;53.692;10.168;2023-07-20T11:07:07;4.13;;;0.85;;
27985;SDS011;15453;53.692;10.168;2023-07-20T11:09:36;3.38;;;0.75;;
27985;SDS011;15453;53.692;10.168;2023-07-20T11:12:09;2.63;;;0.80;;
27985;SDS011;15453;53.692;10.168;2023-07-20T11:14:34;1.88;;;0.80;;
27985;SDS011;15453;53.692;10.168;2023-07-20T11:17:13;4.18;;;0.60;;
27985;SDS011;15453;53.692;10.168;2023-07-20T11:19:39;4.20;;;0.90;;
27985;SDS011;15453;53.692;10.168;2023-07-20T11:22:06;2.45;;;0.57;;
27985;SDS011;15453;53.692;10.168;2023-07-20T11:24:33;4.95;;;0.90;;
27985;SDS011;15453;53.692;10.168;2023-07-20T11:26:58;5.45;;;0.60;;
27985;SDS011;15453;53.692;10.168;2023-07-20T11:29:24;3.03;;;0.90;;
27985;SDS011;15453;53.692;10.168;2023-07-20T11:31:50;4.03;;;0.85;;
27985;SDS011;15453;53.692;10.168;2023-07-20T11:34:17;7.07;;;1.00;;
27985;SDS011;15453;53.692;10.168;2023-07-20T11:36:52;3.90;;;0.73;;
27985;SDS011;15453;53.692;10.168;2023-07-20T11:39:18;1.35;;;0.50;;
27985;SDS011;15453;53.692;10.168;2023-07-20T11:41:46;3.15;;;0.60;;
27985;SDS011;15453;53.692;10.168;2023-07-20T11:44:13;2.72;;;0.75;;
27985;SDS011;15453;53.692;10.168;2023-07-20T11:46:40;1.52;;;0.60;;
27985;SDS011;15453;53.692;10.168;2023-07-20T11:49:07;2.92;;;0.60;;
27985;SDS011;15453;53.692;10.168;2023-07-20T11:51:32;1.75;;;0.57;;
27985;SDS011;15453;53.692;10.168;2023-07-20T11:53:58;3.97;;;0.90;;
27985;SDS011;15453;53.692;10.168;2023-07-20T11:56:25;1.83;;;0.50;;
27985;SDS011;15453;53.692;10.168;2023-07-20T11:58:50;1.92;;;0.60;;
27985;SDS011;15453;53.692;10.168;2023-07-20T12:01:19;3.05;;;0.80;;
27985;SDS011;15453;53.692;10.168;2023-07-20T12:03:45;3.05;;;0.70;;
27985;SDS011;15453;53.692;10.168;2023-07-20T12:06:10;3.67;;;0.80;;
27985;SDS011;15453;53.692;10.168;2023-07-20T12:08:42;2.65;;;0.75;;
27985;SDS011;15453;53.692;10.168;2023-07-20T12:11:08;2.42;;;0.90;;
27985;SDS011;15453;53.692;10.168;2023-07-20T12:13:37;2.90;;;0.80;;
27985;SDS011;15453;53.692;10.168;2023-07-20T12:16:06;3.85;;;1.10;;
27985;SDS011;15453;53.692;10.168;2023-07-20T12:18:34;4.35;;;1.15;;
27985;SDS011;15453;53.692;10.168;2023-07-20T12:21:00;4.63;;;0.80;;
27985;SDS011;15453;53.692;10.168;2023-07-20T12:23:25;3.22;;;0.70;;
27985;SDS011;15453;53.692;10.168;2023-07-20T12:25:51;3.25;;;0.70;;
27985;SDS011;15453;53.692;10.168;2023-07-20T12:28:17;3.22;;;0.75;;
27985;SDS011;15453;53.692;10.168;2023-07-20T12:30:44;5.07;;;1.30;;
27985;SDS011;15453;53.692;10.168;2023-07-20T12:33:11;3.90;;;0.90;;
27985;SDS011;15453;53.692;10.168;2023-07-20T12:35:39;5.47;;;1.33;;
27985;SDS011;15453;53.692;10.168;2023-07-20T12:38:04;4.15;;;1.15;;
27985;SDS011;15453;53.692;10.168;2023-07-20T12:40:29;4.88;;;1.10;;
27985;SDS011;15453;53.692;10.168;2023-07-20T12:42:55;4.35;;;1.55;;
27985;SDS011;15453;53.692;10.168;2023-07-20T12:45:20;3.45;;;0.80;;
27985;SDS011;15453;53.692;10.168;2023-07-20T12:47:46;3.83;;;0.80;;
27985;SDS011;15453;53.692;10.168;2023-07-20T12:50:11;6.75;;;1.20;;
27985;SDS011;15453;53.692;10.168;2023-07-20T12:52:38;4.70;;;0.95;;
27985;SDS011;15453;53.692;10.168;2023-07-20T12:55:05;1.80;;;0.70;;
27985;SDS011;15453;53.692;10.168;2023-07-20T12:57:33;2.55;;;0.88;;
27985;SDS011;15453;53.692;10.168;2023-07-20T12:59:59;2.40;;;0.90;;
27985;SDS011;15453;53.692;10.168;2023-07-20T13:02:24;3.42;;;0.95;;
27985;SDS011;15453;53.692;10.168;2023-07-20T13:04:50;3.03;;;0.80;;
27985;SDS011;15453;53.692;10.168;2023-07-20T13:07:15;4.55;;;0.80;;
27985;SDS011;15453;53.692;10.168;2023-07-20T13:09:40;5.40;;;0.90;;
27985;SDS011;15453;53.692;10.168;2023-07-20T13:12:06;4.22;;;0.90;;
27985;SDS011;15453;53.692;10.168;2023-07-20T13:14:31;2.08;;;0.75;;
27985;SDS011;15453;53.692;10.168;2023-07-20T13:16:57;1.98;;;1.02;;
27985;SDS011;15453;53.692;10.168;2023-07-20T13:19:22;2.95;;;0.85;;
27985;SDS011;15453;53.692;10.168;2023-07-20T13:21:47;2.78;;;0.90;;
27985;SDS011;15453;53.692;10.168;2023-07-20T13:24:13;2.20;;;0.68;;
27985;SDS011;15453;53.692;10.168;2023-07-20T13:26:38;2.95;;;0.82;;
27985;SDS011;15453;53.692;10.168;2023-07-20T13:29:03;3.70;;;0.98;;
27985;SDS011;15453;53.692;10.168;2023-07-20T13:31:29;9.73;;;4.03;;
27985;SDS011;15453;53.692;10.168;2023-07-20T13:33:54;5.30;;;1.75;;
27985;SDS011;15453;53.692;10.168;2023-07-20T13:36:21;2.50;;;0.98;;
27985;SDS011;15453;53.692;10.168;2023-07-20T13:38:47;4.57;;;0.93;;
27985;SDS011;15453;53.692;10.168;2023-07-20T13:41:13;1.30;;;0.50;;
27985;SDS011;15453;53.692;10.168;2023-07-20T13:43:39;3.90;;;0.80;;
27985;SDS011;15453;53.692;10.168;2023-07-20T13:46:05;2.58;;;0.60;;
27985;SDS011;15453;53.692;10.168;2023-07-20T13:48:30;2.30;;;1.00;;
27985;SDS011;15453;53.692;10.168;2023-07-20T13:50:55;1.95;;;0.70;;
27985;SDS011;15453;53.692;10.168;2023-07-20T13:53:20;2.77;;;0.90;;
27985;SDS011;15453;53.692;10.168;2023-07-20T13:55:47;2.72;;;0.98;;
27985;SDS011;15453;53.692;10.168;2023-07-20T13:58:12;2.40;;;0.80;;
27985;SDS011;15453;53.692;10.168;2023-07-20T14:00:38;4.20;;;0.80;;
27985;SDS011;15453;53.692;10.168;2023-07-20T14:03:03;2.45;;;0.82;;
27985;SDS011;15453;53.692;10.168;2023-07-20T14:05:28;5.40;;;0.87;;
27985;SDS011;15453;53.692;10.168;2023-07-20T14:07:53;4.03;;;0.70;;
27985;SDS011;15453;53.692;10.168;2023-07-20T14:10:19;3.17;;;0.90;;
27985;SDS011;15453;53.692;10.168;2023-07-20T14:12:44;4.53;;;0.80;;
27985;SDS011;15453;53.692;10.168;2023-07-20T14:15:10;0.95;;;0.50;;
27985;SDS011;15453;53.692;10.168;2023-07-20T14:17:35;2.28;;;0.68;;
27985;SDS011;15453;53.692;10.168;2023-07-20T14:20:00;2.33;;;0.82;;
27985;SDS011;15453;53.692;10.168;2023-07-20T14:22:26;1.40;;;0.60;;
27985;SDS011;15453;53.692;10.168;2023-07-20T14:24:52;1.33;;;0.60;;
27985;SDS011;15453;53.692;10.168;2023-07-20T14:27:17;1.73;;;0.68;;
27985;SDS011;15453;53.692;10.168;2023-07-20T14:29:42;1.42;;;0.55;;
27985;SDS011;15453;53.692;10.168;2023-07-20T14:32:08;1.40;;;0.60;;
27985;SDS011;15453;53.692;10.168;2023-07-20T14:34:33;1.70;;;0.70;;
27985;SDS011;15453;53.692;10.168;2023-07-20T14:36:59;1.60;;;0.80;;
27985;SDS011;15453;53.692;10.168;2023-07-20T14:39:25;2.15;;;0.70;;
27985;SDS011;15453;53.692;10.168;2023-07-20T14:41:50;1.33;;;0.60;;